ENFB/FBU METAR and TAF weather

Enter ICAO airport designator
Station Type Date Time Source
ENFB METAR 2023/01/29 18:50 UTC NOAA

ENFB 291850Z AUTO 27047KT 9999NDV SCT034/// 07/00 Q0987 W///S6


Station Type Date Time Source
ENFB Decoded METAR 2023/01/29 18:50 UTC NOAA

Oslo / Fornebu, Norway (ENFB) 59-54N 010-38E 17M
Jan 29, 2023 - 01:50 PM EST / 2023.01.29 1850 UTC
Wind: from the W (270 degrees) at 54 MPH (47 KT):0
Sky conditions: partly cloudy
Temperature: 44 F (7 C)
Dew Point: 32 F (0 C)
Relative Humidity: 60%
Pressure (altimeter): 29.15 in. Hg (0987 hPa)
ob: ENFB 291850Z AUTO 27047KT 9999NDV SCT034/// 07/00 Q0987 W///S6
cycle: 19

Station Type Date Time Source
ENFB TAF UTC NOAA

Error!

Example: see airport list